Terminal Aerodrome Forecast
Issued by NWS Jackson, KY

Home | Current Version | Previous Version | Text Only | Print | Product List | Glossary On
Versions: 1 2 3 4 5 6 7 8 9 10 11 12 13 14 15 16 17 18 19 20 21 22
936
FTUS43 KJKL 281720
TAFJKL
TAF
KJKL 281720Z 2818/2918 VRB04KT P6SM VCTS FEW023CB BKN035
     FM282300 26006KT P6SM SCT050 SCT200=

USA.gov is the U.S. government's official web portal to all federal, state and local government web resources and services.